createdAt,value
2022-09-15T00:02:24.877Z,9.20
2022-09-15T00:05:26.819Z,9.65
2022-09-15T00:08:28.728Z,9.73
2022-09-15T00:11:32.568Z,10.50
2022-09-15T00:14:34.433Z,10.52
2022-09-15T00:17:36.308Z,10.35
2022-09-15T00:20:42.772Z,10.30
2022-09-15T00:23:44.829Z,11.07
2022-09-15T00:26:46.652Z,10.30
2022-09-15T00:29:48.544Z,10.93
2022-09-15T00:32:50.403Z,11.05
2022-09-15T00:35:53.448Z,11.70
2022-09-15T00:38:55.317Z,11.35
2022-09-15T00:41:57.135Z,10.75
2022-09-15T00:45:00.834Z,11.73
2022-09-15T00:48:02.724Z,11.20
2022-09-15T00:51:04.623Z,11.57
2022-09-15T00:54:12.793Z,11.88
2022-09-15T00:57:19.421Z,12.02
2022-09-15T01:00:22.745Z,12.40
2022-09-15T01:03:24.885Z,12.95
2022-09-15T01:06:40.266Z,13.55
2022-09-15T01:09:49.552Z,13.90
2022-09-15T01:12:51.520Z,15.30
2022-09-15T01:16:15.318Z,14.63
2022-09-15T01:19:37.350Z,14.35
2022-09-15T01:23:03.160Z,14.90
2022-09-15T01:26:05.043Z,13.32
2022-09-15T01:29:26.062Z,13.02
2022-09-15T01:33:04.052Z,11.23
2022-09-15T01:36:14.400Z,8.98
2022-09-15T01:39:18.356Z,7.90
2022-09-15T01:42:20.188Z,8.00
2022-09-15T01:45:26.765Z,8.07
2022-09-15T01:48:28.638Z,7.55
2022-09-15T01:51:30.879Z,7.82
2022-09-15T01:54:36.079Z,6.85
2022-09-15T01:57:37.972Z,7.50
2022-09-15T02:03:55.577Z,7.30
2022-09-15T02:07:11.760Z,7.55
2022-09-15T02:10:37.836Z,7.38
2022-09-15T02:13:54.214Z,7.30
2022-09-15T02:16:56.891Z,7.60
2022-09-15T02:20:08.136Z,7.53
2022-09-15T02:23:18.959Z,8.05
2022-09-15T02:26:24.570Z,8.90
2022-09-15T02:29:27.053Z,9.27
2022-09-15T02:35:31.059Z,10.45
2022-09-15T02:38:35.354Z,11.23
2022-09-15T02:41:37.385Z,11.75
2022-09-15T02:44:39.278Z,10.48
2022-09-15T02:47:41.123Z,11.20
2022-09-15T02:50:42.988Z,11.77
2022-09-15T02:53:45.668Z,11.73
2022-09-15T02:56:47.653Z,11.45
2022-09-15T03:00:08.084Z,11.60
2022-09-15T03:03:10.330Z,12.20
2022-09-15T03:06:19.848Z,11.93
2022-09-15T03:09:21.678Z,11.38
2022-09-15T03:12:23.761Z,11.32
2022-09-15T03:15:25.970Z,11.30
2022-09-15T03:18:27.839Z,11.45
2022-09-15T03:21:29.847Z,11.70
2022-09-15T03:24:31.688Z,11.38
2022-09-15T03:27:34.200Z,11.18
2022-09-15T03:33:37.862Z,11.20
2022-09-15T03:36:39.776Z,12.48
2022-09-15T03:39:41.647Z,11.70
2022-09-15T03:42:43.495Z,11.57
2022-09-15T03:45:45.388Z,12.73
2022-09-15T03:48:47.605Z,12.85
2022-09-15T03:51:49.491Z,13.88
2022-09-15T03:54:51.357Z,13.68
2022-09-15T03:57:53.347Z,13.73
2022-09-15T04:00:55.225Z,13.32
2022-09-15T04:03:58.171Z,12.52
2022-09-15T04:07:00.015Z,12.73
2022-09-15T04:10:02.065Z,10.80
2022-09-15T04:13:03.900Z,10.50
2022-09-15T04:16:08.207Z,10.38
2022-09-15T04:19:10.744Z,9.85
2022-09-15T04:25:19.802Z,11.00
2022-09-15T04:28:21.660Z,10.90
2022-09-15T04:31:23.692Z,11.15
2022-09-15T04:34:25.636Z,10.93
2022-09-15T04:37:27.523Z,12.15
2022-09-15T04:40:29.698Z,12.48
2022-09-15T04:43:31.888Z,13.68
2022-09-15T04:46:33.816Z,12.80
2022-09-15T04:49:35.697Z,12.85
2022-09-15T04:52:37.630Z,13.43
2022-09-15T04:55:39.500Z,12.60
2022-09-15T04:58:42.888Z,13.05
2022-09-15T05:01:44.912Z,12.95
2022-09-15T05:04:48.721Z,13.20
2022-09-15T05:07:50.629Z,12.73
2022-09-15T05:10:53.338Z,12.25
2022-09-15T05:13:55.201Z,12.05
2022-09-15T05:16:57.022Z,12.68
2022-09-15T05:20:01.926Z,11.40
2022-09-15T05:23:03.779Z,11.10
2022-09-15T05:26:07.195Z,12.20
2022-09-15T05:29:09.094Z,11.05
2022-09-15T05:32:10.983Z,11.90
2022-09-15T05:35:12.910Z,11.18
2022-09-15T05:38:15.726Z,11.65
2022-09-15T05:41:18.309Z,11.70
2022-09-15T05:44:21.487Z,11.15
2022-09-15T05:47:23.821Z,11.05
2022-09-15T05:53:27.528Z,10.77
2022-09-15T05:56:29.609Z,11.60
2022-09-15T05:59:31.459Z,11.27
2022-09-15T06:02:33.370Z,10.45
2022-09-15T06:05:35.341Z,10.18
2022-09-15T06:08:41.444Z,11.27
2022-09-15T06:11:45.822Z,10.57
2022-09-15T06:14:51.092Z,10.70
2022-09-15T06:17:52.975Z,10.55
2022-09-15T06:20:54.792Z,10.20
2022-09-15T06:23:58.917Z,9.18
2022-09-15T06:27:00.863Z,8.40
2022-09-15T06:30:02.727Z,8.45
2022-09-15T06:33:04.548Z,8.73
2022-09-15T06:36:07.478Z,7.65
2022-09-15T06:39:09.331Z,7.75
2022-09-15T06:42:13.765Z,7.65
2022-09-15T06:45:17.094Z,7.00
2022-09-15T06:48:24.935Z,6.88
2022-09-15T06:51:31.382Z,7.30
2022-09-15T06:54:33.268Z,7.00
2022-09-15T06:57:36.108Z,6.85
2022-09-15T07:00:38.048Z,7.00
2022-09-15T07:03:41.518Z,6.25
2022-09-15T07:06:43.409Z,6.80
2022-09-15T07:09:48.890Z,6.32
2022-09-15T07:12:51.027Z,6.53
2022-09-15T07:15:57.472Z,6.28
2022-09-15T07:19:01.849Z,6.43
2022-09-15T07:22:03.685Z,6.80
2022-09-15T07:25:06.003Z,6.60
2022-09-15T07:28:07.884Z,6.43
2022-09-15T07:31:11.235Z,7.13
2022-09-15T07:34:13.132Z,6.75
2022-09-15T07:37:16.153Z,6.30
2022-09-15T07:40:18.386Z,6.65
2022-09-15T07:46:23.073Z,6.53
2022-09-15T07:49:24.922Z,6.55
2022-09-15T07:52:26.808Z,5.90
2022-09-15T07:55:30.415Z,6.20
2022-09-15T07:58:33.021Z,6.63
2022-09-15T08:01:34.959Z,15.35
2022-09-15T08:04:36.813Z,6.35
2022-09-15T08:07:40.096Z,6.55
2022-09-15T08:10:41.981Z,7.93
2022-09-15T08:13:43.899Z,6.90
2022-09-15T08:16:45.981Z,6.28
2022-09-15T08:19:47.878Z,7.03
2022-09-15T08:22:49.788Z,6.97
2022-09-15T08:25:52.031Z,6.35
2022-09-15T08:28:53.986Z,6.40
2022-09-15T08:31:55.897Z,6.53
2022-09-15T08:34:57.727Z,6.10
2022-09-15T08:37:59.561Z,6.90
2022-09-15T08:41:06.544Z,7.20
2022-09-15T08:44:20.457Z,6.53
2022-09-15T08:47:36.963Z,6.68
2022-09-15T08:50:41.041Z,6.70
2022-09-15T08:53:45.905Z,6.95
2022-09-15T08:56:47.748Z,6.88
2022-09-15T08:59:49.591Z,7.53
2022-09-15T09:03:15.226Z,6.57
2022-09-15T09:06:38.548Z,6.90
2022-09-15T09:09:43.521Z,6.85
2022-09-15T09:12:51.221Z,6.60
2022-09-15T09:15:57.255Z,6.90
2022-09-15T09:19:14.804Z,7.40
2022-09-15T09:22:18.028Z,6.45
2022-09-15T09:25:28.357Z,6.60
2022-09-15T09:28:39.002Z,6.00
2022-09-15T09:31:41.003Z,6.60
2022-09-15T09:35:01.061Z,6.60
2022-09-15T09:38:02.892Z,6.20
2022-09-15T09:41:18.631Z,6.55
2022-09-15T09:44:20.553Z,6.32
2022-09-15T09:47:27.232Z,5.63
2022-09-15T09:50:34.050Z,5.68
2022-09-15T09:53:36.657Z,5.60
2022-09-15T09:56:38.698Z,5.38
2022-09-15T10:02:47.091Z,5.65
2022-09-15T10:06:04.060Z,5.10
2022-09-15T10:09:13.923Z,5.65
2022-09-15T10:12:20.216Z,4.55
2022-09-15T10:15:26.124Z,4.45
2022-09-15T10:18:37.610Z,4.20
2022-09-15T10:21:39.738Z,4.70
2022-09-15T10:27:43.401Z,4.00
2022-09-15T10:31:16.327Z,3.75
2022-09-15T10:34:31.111Z,3.67
2022-09-15T10:37:57.229Z,3.95
2022-09-15T10:41:20.616Z,4.00
2022-09-15T10:44:45.496Z,3.55
2022-09-15T10:48:24.975Z,3.78
2022-09-15T10:51:53.845Z,4.00
2022-09-15T10:55:10.568Z,4.18
2022-09-15T10:58:28.372Z,4.00
2022-09-15T11:01:30.238Z,3.60
2022-09-15T11:07:46.350Z,3.88
2022-09-15T11:11:08.048Z,4.10
2022-09-15T11:14:10.398Z,3.20
2022-09-15T11:17:25.460Z,3.75
2022-09-15T11:20:49.323Z,3.50
2022-09-15T11:24:16.849Z,3.00
2022-09-15T11:27:25.101Z,3.50
2022-09-15T11:30:36.001Z,2.85
2022-09-15T11:33:45.214Z,2.85
2022-09-15T11:36:56.426Z,2.90
2022-09-15T11:40:25.258Z,3.50
2022-09-15T11:43:34.516Z,2.85
2022-09-15T11:46:50.512Z,4.07
2022-09-15T11:49:57.121Z,3.72
2022-09-15T11:53:19.273Z,3.97
2022-09-15T11:56:53.811Z,3.53
2022-09-15T12:00:00.788Z,2.97
2022-09-15T12:03:24.549Z,3.53
2022-09-15T12:06:49.438Z,3.13
2022-09-15T12:09:51.675Z,2.85
2022-09-15T12:12:53.934Z,2.90
2022-09-15T12:15:55.798Z,2.60
2022-09-15T12:19:15.689Z,3.00
2022-09-15T12:22:20.674Z,2.85
2022-09-15T12:25:26.706Z,2.70
2022-09-15T12:28:42.936Z,2.40
2022-09-15T12:31:45.916Z,2.33
2022-09-15T12:34:56.368Z,2.83
2022-09-15T12:37:58.712Z,2.33
2022-09-15T12:41:00.589Z,2.72
2022-09-15T12:44:14.739Z,2.50
2022-09-15T12:47:49.175Z,2.35
2022-09-15T12:50:55.942Z,2.22
2022-09-15T12:54:04.843Z,2.60
2022-09-15T12:57:08.121Z,2.03
2022-09-15T13:00:20.003Z,2.45
2022-09-15T13:03:28.858Z,2.67
2022-09-15T13:07:21.218Z,3.17
2022-09-15T13:10:34.768Z,2.60
2022-09-15T13:13:54.589Z,2.30
2022-09-15T13:16:58.400Z,2.40
2022-09-15T13:20:02.012Z,2.20
2022-09-15T13:23:03.864Z,2.20
2022-09-15T13:26:06.671Z,1.95
2022-09-15T13:29:09.255Z,2.45
2022-09-15T13:32:16.756Z,2.20
2022-09-15T13:35:46.658Z,2.25
2022-09-15T13:39:16.185Z,2.35
2022-09-15T13:42:40.184Z,2.55
2022-09-15T13:45:54.611Z,2.30
2022-09-15T13:49:26.149Z,2.47
2022-09-15T13:52:52.214Z,2.00
2022-09-15T13:55:55.638Z,2.25
2022-09-15T13:59:10.355Z,2.25
2022-09-15T14:02:14.944Z,2.40
2022-09-15T14:05:17.043Z,2.67
2022-09-15T14:11:25.880Z,2.40
2022-09-15T14:14:40.808Z,2.38
2022-09-15T14:17:46.014Z,2.47
2022-09-15T14:21:01.047Z,2.28
2022-09-15T14:24:06.039Z,2.38
2022-09-15T14:27:08.880Z,2.85
2022-09-15T14:30:31.280Z,2.17
2022-09-15T14:33:38.395Z,2.65
2022-09-15T14:36:40.694Z,2.40
2022-09-15T14:39:48.683Z,2.42
2022-09-15T14:42:50.642Z,2.53
2022-09-15T14:49:11.661Z,2.28
2022-09-15T14:52:25.706Z,2.70
2022-09-15T14:55:32.668Z,2.53
2022-09-15T14:58:39.590Z,2.35
2022-09-15T15:01:46.351Z,2.53
2022-09-15T15:04:51.848Z,2.47
2022-09-15T15:07:55.377Z,2.75
2022-09-15T15:10:57.186Z,2.72
2022-09-15T15:17:02.509Z,2.50
2022-09-15T15:20:10.593Z,2.65
2022-09-15T15:23:23.847Z,2.50
2022-09-15T15:26:35.520Z,2.75
2022-09-15T15:29:43.229Z,2.50
2022-09-15T15:32:45.343Z,2.65
2022-09-15T15:35:47.399Z,2.53
2022-09-15T15:38:52.085Z,2.25
2022-09-15T15:42:08.528Z,2.78
2022-09-15T15:45:16.294Z,2.60
2022-09-15T15:48:18.149Z,2.38
2022-09-15T15:54:23.195Z,2.78
2022-09-15T15:57:27.425Z,3.13
2022-09-15T16:00:38.391Z,3.10
2022-09-15T16:03:40.362Z,2.83
2022-09-15T16:06:42.212Z,2.80
2022-09-15T16:12:46.044Z,2.50
2022-09-15T16:15:48.066Z,2.38
2022-09-15T16:21:52.091Z,3.88
2022-09-15T16:24:55.212Z,3.20
2022-09-15T16:27:57.041Z,3.63
2022-09-15T16:30:59.076Z,3.45
2022-09-15T16:37:02.892Z,4.53
2022-09-15T16:40:05.314Z,3.60
2022-09-15T16:43:10.403Z,4.50
2022-09-15T16:46:12.851Z,3.80
2022-09-15T16:49:14.798Z,3.00
2022-09-15T16:52:16.890Z,2.75
2022-09-15T16:58:25.219Z,2.33
2022-09-15T17:01:27.076Z,2.70
2022-09-15T17:04:28.995Z,2.60
2022-09-15T17:07:30.832Z,3.40
2022-09-15T17:10:33.589Z,2.40
2022-09-15T17:13:35.432Z,2.38
2022-09-15T17:16:37.261Z,3.03
2022-09-15T17:19:39.100Z,2.78
2022-09-15T17:22:41.117Z,2.83
2022-09-15T17:25:48.977Z,2.65
2022-09-15T17:28:51.045Z,2.35
2022-09-15T17:31:52.901Z,2.17
2022-09-15T17:34:54.784Z,2.92
2022-09-15T17:37:56.619Z,2.60
2022-09-15T17:40:58.795Z,2.67
2022-09-15T17:47:03.041Z,2.47
2022-09-15T17:50:05.474Z,2.58
2022-09-15T17:53:26.647Z,2.50
2022-09-15T17:56:28.504Z,2.33
2022-09-15T17:59:30.368Z,2.40
2022-09-15T18:02:32.395Z,2.35
2022-09-15T18:05:35.553Z,2.33
2022-09-15T18:08:37.496Z,2.40
2022-09-15T18:11:39.749Z,2.22
2022-09-15T18:17:43.752Z,2.50
2022-09-15T18:23:47.498Z,2.20
2022-09-15T18:26:49.352Z,2.47
2022-09-15T18:29:51.500Z,2.20
2022-09-15T18:32:53.632Z,2.60
2022-09-15T18:35:56.532Z,2.20
2022-09-15T18:38:58.351Z,2.45
2022-09-15T18:42:00.180Z,3.05
2022-09-15T18:45:02.207Z,2.80
2022-09-15T18:48:04.157Z,3.45
2022-09-15T18:51:09.693Z,3.10
2022-09-15T18:54:11.548Z,3.03
2022-09-15T18:57:13.501Z,2.60
2022-09-15T19:00:25.493Z,2.65
2022-09-15T19:03:27.456Z,2.92
2022-09-15T19:06:29.708Z,2.70
2022-09-15T19:09:31.592Z,3.42
2022-09-15T19:12:34.537Z,3.17
2022-09-15T19:15:36.502Z,3.10
2022-09-15T19:18:38.469Z,3.10
2022-09-15T19:21:40.376Z,3.30
2022-09-15T19:24:42.231Z,3.10
2022-09-15T19:27:44.070Z,3.30
2022-09-15T19:30:45.997Z,3.33
2022-09-15T19:33:47.938Z,3.58
2022-09-15T19:36:49.816Z,3.97
2022-09-15T19:39:51.744Z,4.28
2022-09-15T19:42:53.658Z,4.32
2022-09-15T19:45:56.128Z,4.30
2022-09-15T19:48:58.920Z,4.53
2022-09-15T19:52:00.837Z,5.60
2022-09-15T19:55:03.179Z,3.75
2022-09-15T20:01:06.834Z,3.60
2022-09-15T20:04:09.627Z,4.63
2022-09-15T20:07:12.547Z,3.75
2022-09-15T20:10:15.035Z,3.58
2022-09-15T20:13:17.112Z,2.83
2022-09-15T20:16:19.379Z,2.70
2022-09-15T20:19:21.295Z,2.60
2022-09-15T20:22:23.722Z,2.85
2022-09-15T20:25:25.620Z,3.22
2022-09-15T20:28:27.813Z,4.20
2022-09-15T20:31:29.965Z,3.17
2022-09-15T20:34:31.855Z,2.78
2022-09-15T20:37:37.468Z,3.30
2022-09-15T20:40:39.652Z,2.85
2022-09-15T20:43:42.450Z,3.20
2022-09-15T20:46:44.353Z,3.13
2022-09-15T20:49:46.220Z,2.88
2022-09-15T20:52:48.952Z,2.65
2022-09-15T20:55:50.949Z,2.90
2022-09-15T20:58:57.052Z,2.50
2022-09-15T21:01:58.971Z,2.80
2022-09-15T21:05:00.832Z,3.30
2022-09-15T21:08:02.781Z,3.03
2022-09-15T21:11:05.306Z,3.50
2022-09-15T21:14:07.619Z,3.25
2022-09-15T21:20:11.245Z,4.03
2022-09-15T21:23:13.130Z,5.00
2022-09-15T21:26:16.716Z,4.80
2022-09-15T21:29:18.534Z,4.70
2022-09-15T21:32:20.498Z,4.78
2022-09-15T21:35:22.335Z,4.65
2022-09-15T21:38:24.162Z,4.18
2022-09-15T21:41:28.770Z,3.92
2022-09-15T21:44:30.754Z,3.70
2022-09-15T21:47:34.128Z,2.90
2022-09-15T21:50:36.341Z,2.83
2022-09-15T21:53:38.264Z,2.83
2022-09-15T21:56:40.287Z,2.38
2022-09-15T21:59:42.169Z,2.22
2022-09-15T22:02:43.983Z,2.50
2022-09-15T22:05:46.561Z,2.75
2022-09-15T22:08:48.470Z,2.25
2022-09-15T22:11:50.349Z,2.00
2022-09-15T22:14:52.299Z,2.35
2022-09-15T22:17:54.129Z,2.28
2022-09-15T22:21:07.309Z,2.00
2022-09-15T22:24:10.706Z,2.40
2022-09-15T22:27:12.656Z,2.40
2022-09-15T22:30:14.546Z,2.33
2022-09-15T22:33:16.425Z,2.83
2022-09-15T22:36:19.905Z,2.88
2022-09-15T22:39:27.021Z,3.33
2022-09-15T22:42:40.444Z,4.10
2022-09-15T22:45:42.345Z,4.35
2022-09-15T22:48:44.231Z,4.47
2022-09-15T22:51:46.418Z,5.10
2022-09-15T22:54:48.293Z,4.53
2022-09-15T22:57:50.156Z,4.93
2022-09-15T23:00:52.030Z,5.18
2022-09-15T23:03:55.758Z,5.40
2022-09-15T23:06:57.697Z,5.15
2022-09-15T23:09:59.550Z,4.85
2022-09-15T23:13:01.430Z,4.50
2022-09-15T23:16:03.638Z,4.93
2022-09-15T23:19:05.520Z,4.57
2022-09-15T23:22:07.685Z,4.40
2022-09-15T23:25:09.595Z,4.30
2022-09-15T23:28:11.461Z,3.88
2022-09-15T23:31:13.683Z,3.83
2022-09-15T23:34:15.647Z,3.00
2022-09-15T23:37:17.493Z,2.80
2022-09-15T23:40:19.410Z,3.25
2022-09-15T23:43:21.308Z,3.42
2022-09-15T23:46:23.208Z,3.50
2022-09-15T23:49:25.103Z,4.05
2022-09-15T23:52:26.983Z,3.85
2022-09-15T23:55:28.821Z,3.50
2022-09-15T23:58:30.720Z,3.28
